Time;durP1;ratioP1;P1;durP2;ratioP2;P2;SDS_P1;SDS_P2;PMS_P1;PMS_P2;Temp;Humidity;BMP_temperature;BMP_pressure;BME280_temperature;BME280_humidity;BME280_pressure;Samples;Min_cycle;Max_cycle;Signal;HPM_P1;HPM_P2
2021/12/05 00:18:57;;;;;;;;;;;;;;;8.09;77.22;99288.06;5029736;28;19923;-86
2021/12/05 00:23:50;;;;;;;;;;;;;;;8.35;76.31;99275.50;5028241;28;19916;-86
2021/12/05 00:26:19;;;;;;;;;;;;;;;8.37;75.84;99272.84;5028104;28;19913;-86
2021/12/05 00:29:07;;;;;;;;;;;;;;;8.35;76.11;99277.25;5028168;28;19917;-86
2021/12/05 00:34:08;;;;;;;;;;;;;;;8.15;77.06;99288.00;5028321;28;19917;-87
2021/12/05 00:59:04;;;;;;;;;;;;;;;8.33;75.88;99274.66;5009356;28;19913;-86
2021/12/05 01:01:18;;;;;;;;;;;;;;;7.96;76.86;99274.22;5013756;28;19921;-85
2021/12/05 01:13:42;;;;;;;;;;;;;;;7.75;79.02;99264.81;5028171;28;19975;-86
2021/12/05 01:16:12;;;;;;;;;;;;;;;7.89;78.51;99276.03;5028196;28;19979;-85
2021/12/05 01:18:38;;;;;;;;;;;;;;;7.97;78.21;99276.84;5028746;28;19971;-85
2021/12/05 01:21:08;;;;;;;;;;;;;;;8.08;77.81;99271.47;5028541;28;19913;-86
2021/12/05 01:26:06;;;;;;;;;;;;;;;7.95;77.80;99264.59;5027780;28;19917;-87
2021/12/05 01:33:54;;;;;;;;;;;;;;;7.86;78.14;99262.94;5027974;28;19921;-87
2021/12/05 01:36:30;;;;;;;;;;;;;;;7.94;78.46;99261.09;5027531;28;19916;-86
2021/12/05 01:47:32;;;;;;;;;;;;;;;7.93;78.67;99264.59;5028298;28;20449;-88
2021/12/05 02:10:50;;;;;;;;;;;;;;;7.96;77.55;99251.44;5018657;28;19925;-88
2021/12/05 02:16:16;;;;;;;;;;;;;;;7.98;77.22;99247.03;5013299;28;19927;-90
2021/12/05 02:30:00;;;;;;;;;;;;;;;7.77;77.24;99235.03;5027626;28;19923;-86
2021/12/05 02:43:39;;;;;;;;;;;;;;;8.36;75.49;99229.94;5027036;28;19924;-86
2021/12/05 02:46:03;;;;;;;;;;;;;;;8.49;75.12;99221.91;5027888;28;19921;-86
2021/12/05 02:48:30;;;;;;;;;;;;;;;8.28;75.75;99215.13;5031531;28;19917;-86
2021/12/05 02:50:57;;;;;;;;;;;;;;;7.98;76.96;99218.13;5031464;28;19940;-85
2021/12/05 02:53:33;;;;;;;;;;;;;;;8.07;76.87;99215.41;5032072;28;19928;-89
2021/12/05 02:55:59;;;;;;;;;;;;;;;7.91;78.29;99218.22;5031610;28;19961;-86
2021/12/05 02:58:32;;;;;;;;;;;;;;;7.62;78.86;99212.44;5030368;28;20303;-86
2021/12/05 03:03:26;;;;;;;;;;;;;;;7.67;79.54;99201.88;5030745;28;20390;-88
2021/12/05 03:05:58;;;;;;;;;;;;;;;7.51;79.87;99206.44;5030813;28;19917;-88
2021/12/05 03:08:23;;;;;;;;;;;;;;;7.57;80.52;99201.13;5031034;28;19924;-87
2021/12/05 03:10:49;;;;;;;;;;;;;;;7.64;79.99;99200.16;5028907;28;19917;-86
2021/12/05 03:13:15;;;;;;;;;;;;;;;7.71;79.91;99206.22;5030836;28;19917;-88
2021/12/05 03:15:40;;;;;;;;;;;;;;;7.88;79.14;99203.41;5029516;28;20107;-87
2021/12/05 03:18:06;;;;;;;;;;;;;;;8.00;78.18;99205.00;5031337;28;19917;-87
2021/12/05 03:20:31;;;;;;;;;;;;;;;7.98;78.70;99212.88;5030478;28;19917;-87
2021/12/05 03:22:57;;;;;;;;;;;;;;;8.03;78.02;99213.72;5031312;28;20012;-87
2021/12/05 03:25:23;;;;;;;;;;;;;;;7.90;78.21;99217.38;5030075;28;19921;-85
2021/12/05 03:27:48;;;;;;;;;;;;;;;7.70;78.87;99220.22;5029364;28;19978;-87
2021/12/05 03:30:18;;;;;;;;;;;;;;;7.83;78.76;99218.31;5030745;28;19921;-88
2021/12/05 03:32:43;;;;;;;;;;;;;;;7.73;78.94;99214.94;5029248;28;19917;-86
2021/12/05 03:35:09;;;;;;;;;;;;;;;7.60;79.21;99208.97;5030978;28;20288;-86
2021/12/05 03:37:34;;;;;;;;;;;;;;;7.43;80.55;99211.75;5029478;28;20454;-87
2021/12/05 03:39:59;;;;;;;;;;;;;;;7.55;79.63;99205.50;5029623;28;19921;-87
2021/12/05 03:42:25;;;;;;;;;;;;;;;7.46;80.30;99210.84;5030153;28;20020;-87
2021/12/05 03:44:50;;;;;;;;;;;;;;;7.55;79.54;99210.75;5030244;28;19917;-87
2021/12/05 03:47:16;;;;;;;;;;;;;;;7.63;79.60;99208.94;5030272;28;19916;-86
2021/12/05 03:49:42;;;;;;;;;;;;;;;7.75;78.85;99209.66;5028570;28;20371;-86
2021/12/05 03:52:10;;;;;;;;;;;;;;;7.53;79.33;99207.28;5030340;28;19917;-88
2021/12/05 03:54:37;;;;;;;;;;;;;;;7.11;80.57;99199.81;5022920;28;19919;-85
2021/12/05 03:57:02;;;;;;;;;;;;;;;6.95;81.61;99214.81;5011110;28;19923;-86
2021/12/05 03:59:28;;;;;;;;;;;;;;;6.98;81.49;99214.78;5026803;28;19920;-87
2021/12/05 04:01:54;;;;;;;;;;;;;;;7.00;81.34;99225.25;5029965;28;19947;-88
2021/12/05 04:04:20;;;;;;;;;;;;;;;7.26;80.29;99227.66;5029454;28;19917;-88
2021/12/05 04:06:46;;;;;;;;;;;;;;;7.43;79.84;99222.25;5029979;28;20394;-89
2021/12/05 04:09:12;;;;;;;;;;;;;;;7.40;79.82;99234.50;5029769;28;19920;-88
2021/12/05 04:11:41;;;;;;;;;;;;;;;7.40;79.42;99234.50;5028249;28;20067;-89
2021/12/05 04:14:08;;;;;;;;;;;;;;;7.50;79.32;99231.78;5029637;28;19920;-88
2021/12/05 04:16:34;;;;;;;;;;;;;;;7.41;79.31;99238.88;5030058;28;19948;-88
2021/12/05 04:19:00;;;;;;;;;;;;;;;7.43;79.44;99238.00;5031028;28;19917;-89
2021/12/05 04:21:25;;;;;;;;;;;;;;;7.65;78.40;99246.53;5030854;28;19921;-87
2021/12/05 04:23:51;;;;;;;;;;;;;;;7.75;78.21;99247.28;5029285;28;20007;-89
2021/12/05 04:26:17;;;;;;;;;;;;;;;7.76;77.73;99248.19;5028548;28;19925;-90
2021/12/05 04:28:42;;;;;;;;;;;;;;;7.95;76.92;99247.06;5028395;28;19913;-87
2021/12/05 04:31:09;;;;;;;;;;;;;;;7.87;76.92;99256.78;5028844;28;19959;-87
2021/12/05 04:33:35;;;;;;;;;;;;;;;8.00;77.42;99275.91;5027996;28;19917;-85
2021/12/05 04:36:01;;;;;;;;;;;;;;;7.96;77.15;99272.47;5060689;28;20640;-86
2021/12/05 04:38:27;;;;;;;;;;;;;;;8.20;76.13;99273.94;5028584;28;19917;-87
2021/12/05 04:40:52;;;;;;;;;;;;;;;8.22;75.45;99266.03;5023496;28;19927;-84
2021/12/05 04:43:17;;;;;;;;;;;;;;;8.17;76.29;99258.22;5014743;28;20445;-86
2021/12/05 04:45:43;;;;;;;;;;;;;;;8.29;75.68;99257.16;5009191;28;20300;-86
2021/12/05 04:48:09;;;;;;;;;;;;;;;8.20;75.40;99257.28;5026667;28;19916;-86
2021/12/05 04:50:35;;;;;;;;;;;;;;;8.24;75.82;99251.13;5028530;28;19920;-86
2021/12/05 04:53:01;;;;;;;;;;;;;;;8.30;75.85;99252.81;5028616;28;19971;-85
2021/12/05 04:55:26;;;;;;;;;;;;;;;8.31;76.30;99247.53;5010138;28;19921;-88
2021/12/05 04:57:52;;;;;;;;;;;;;;;8.40;76.32;99257.03;5014467;28;19917;-88
2021/12/05 05:00:30;;;;;;;;;;;;;;;8.44;76.14;99263.16;5028357;28;19928;-90
2021/12/05 05:02:55;;;;;;;;;;;;;;;8.39;75.48;99258.81;5028860;28;19960;-89
2021/12/05 05:05:21;;;;;;;;;;;;;;;8.35;75.55;99269.38;5026754;28;19917;-88
2021/12/05 05:07:47;;;;;;;;;;;;;;;8.43;75.26;99264.88;5027692;28;19921;-87
2021/12/05 05:10:18;;;;;;;;;;;;;;;8.38;75.68;99278.06;5026603;28;20457;-88
2021/12/05 05:12:44;;;;;;;;;;;;;;;8.40;75.74;99278.94;5026864;28;20503;-91
2021/12/05 05:15:10;;;;;;;;;;;;;;;8.28;75.79;99283.47;5027341;28;19979;-87
2021/12/05 05:17:37;;;;;;;;;;;;;;;8.24;75.99;99285.28;5026741;28;20307;-88
2021/12/05 05:20:11;;;;;;;;;;;;;;;8.29;75.65;99291.34;5028431;28;20373;-89
2021/12/05 05:26:04;;;;;;;;;;;;;;;8.30;75.96;99294.84;5028290;28;20383;-88
2021/12/05 05:46:49;;;;;;;;;;;;;;;8.48;74.60;99302.53;5028139;28;19921;-90
2021/12/05 05:51:43;;;;;;;;;;;;;;;8.69;73.36;99295.25;5028367;28;19916;-89
2021/12/05 05:54:09;;;;;;;;;;;;;;;8.61;73.63;99300.63;5027773;28;19920;-89
2021/12/05 05:56:36;;;;;;;;;;;;;;;8.62;73.58;99297.09;5024750;28;19925;-88
2021/12/05 05:59:07;;;;;;;;;;;;;;;8.49;73.46;99299.00;5008621;28;19936;-87
2021/12/05 06:04:01;;;;;;;;;;;;;;;8.39;75.01;99307.88;5028659;28;20383;-89
2021/12/05 06:06:27;;;;;;;;;;;;;;;8.48;74.11;99301.66;5028255;28;19928;-88
2021/12/05 06:08:52;;;;;;;;;;;;;;;8.39;74.96;99307.88;5028225;28;19947;-87
2021/12/05 06:11:18;;;;;;;;;;;;;;;8.36;74.76;99310.53;5026110;28;19921;-89
2021/12/05 06:13:44;;;;;;;;;;;;;;;8.38;74.61;99312.25;5027825;28;19956;-88
2021/12/05 06:16:11;;;;;;;;;;;;;;;8.40;74.40;99312.22;5026549;28;20012;-89
2021/12/05 06:18:37;;;;;;;;;;;;;;;8.41;74.73;99319.22;5028036;28;19947;-87
2021/12/05 06:21:03;;;;;;;;;;;;;;;8.30;75.19;99321.13;5027386;28;19921;-88
2021/12/05 06:23:28;;;;;;;;;;;;;;;8.22;75.98;99322.06;5028087;28;20332;-88
2021/12/05 06:25:54;;;;;;;;;;;;;;;8.23;75.54;99328.19;5027743;28;19917;-88
2021/12/05 06:28:27;;;;;;;;;;;;;;;8.28;75.35;99331.66;5023499;28;19975;-89
2021/12/05 06:39:21;;;;;;;;;;;;;;;8.47;75.17;99336.72;5028591;28;19924;-89
2021/12/05 06:46:57;;;;;;;;;;;;;;;8.38;75.19;99335.91;5028490;28;19951;-90
2021/12/05 06:49:22;;;;;;;;;;;;;;;8.33;75.26;99345.59;5027597;28;19917;-89
2021/12/05 06:51:48;;;;;;;;;;;;;;;8.26;75.92;99343.91;5029319;28;19916;-90
2021/12/05 06:54:13;;;;;;;;;;;;;;;8.15;76.58;99351.06;5029629;28;19974;-89
2021/12/05 06:56:39;;;;;;;;;;;;;;;8.25;76.51;99353.56;5030043;28;19913;-92
2021/12/05 06:59:04;;;;;;;;;;;;;;;8.15;76.54;99370.31;5028422;28;20020;-88
2021/12/05 07:01:29;;;;;;;;;;;;;;;8.25;76.32;99363.22;5027919;28;19917;-89
2021/12/05 07:03:59;;;;;;;;;;;;;;;8.36;76.10;99361.34;5025430;28;19928;-92
2021/12/05 07:06:30;;;;;;;;;;;;;;;8.37;75.94;99357.84;5027103;28;20002;-89
2021/12/05 07:09:00;;;;;;;;;;;;;;;8.16;76.53;99360.69;5027605;28;20700;-89
2021/12/05 07:11:31;;;;;;;;;;;;;;;7.96;77.86;99360.91;5027129;28;19917;-90
2021/12/05 07:19:07;;;;;;;;;;;;;;;8.12;77.75;99357.22;5027076;28;20307;-89
2021/12/05 07:21:45;;;;;;;;;;;;;;;8.15;78.65;99357.19;5014135;28;19921;-88
2021/12/05 07:40:34;;;;;;;;;;;;;;;8.04;79.25;99348.53;5030966;28;19924;-85
2021/12/05 07:43:01;;;;;;;;;;;;;;;8.07;79.20;99333.63;5029448;28;19996;-86
2021/12/05 07:45:42;;;;;;;;;;;;;;;7.96;79.45;99348.63;5030680;28;19913;-87
2021/12/05 07:48:25;;;;;;;;;;;;;;;7.91;79.76;99352.16;5030558;28;19956;-86
2021/12/05 07:51:02;;;;;;;;;;;;;;;7.93;79.81;99350.41;5030883;28;20011;-87
2021/12/05 07:53:34;;;;;;;;;;;;;;;8.04;79.42;99349.41;5030914;28;20004;-86
2021/12/05 07:56:03;;;;;;;;;;;;;;;8.00;80.11;99352.09;5030467;28;20457;-85
2021/12/05 08:14:47;;;;;;;;;;;;;;;8.55;77.79;99340.13;5030221;28;20502;-86
2021/12/05 08:17:17;;;;;;;;;;;;;;;8.63;77.19;99343.53;5030009;28;19917;-87
2021/12/05 08:19:42;;;;;;;;;;;;;;;8.56;77.85;99347.13;5030113;28;19995;-86
2021/12/05 08:22:08;;;;;;;;;;;;;;;8.52;78.37;99348.06;5029470;28;20011;-85
2021/12/05 08:24:36;;;;;;;;;;;;;;;8.60;78.33;99343.56;5029796;28;19920;-86
2021/12/05 08:27:04;;;;;;;;;;;;;;;8.77;77.05;99340.72;5029846;28;19917;-86
2021/12/05 08:29:38;;;;;;;;;;;;;;;8.70;77.24;99339.06;5029972;28;20355;-86
2021/12/05 08:35:00;;;;;;;;;;;;;;;9.03;76.55;99326.34;5029103;28;20007;-85
2021/12/05 08:45:19;;;;;;;;;;;;;;;9.18;76.45;99327.88;5027787;28;20754;-86
2021/12/05 10:10:55;;;;;;;;;;;;;;;11.02;69.57;99251.44;5025827;28;19921;-87
2021/12/05 10:37:36;;;;;;;;;;;;;;;11.45;68.41;99235.38;5007638;28;19921;-86
2021/12/05 10:40:07;;;;;;;;;;;;;;;11.61;68.12;99238.47;5018887;28;19932;-85
2021/12/05 10:42:44;;;;;;;;;;;;;;;11.55;68.21;99236.00;5027117;28;20464;-87
2021/12/05 10:45:26;;;;;;;;;;;;;;;11.60;66.97;99235.88;5026576;28;20007;-85
2021/12/05 10:47:53;;;;;;;;;;;;;;;11.65;67.25;99226.94;5020546;28;19928;-85
2021/12/05 10:50:27;;;;;;;;;;;;;;;11.49;67.02;99217.66;5021653;28;19913;-88
2021/12/05 10:53:10;;;;;;;;;;;;;;;11.45;67.03;99211.59;5016749;28;19914;-88
2021/12/05 10:55:36;;;;;;;;;;;;;;;11.06;67.93;99206.44;5013164;28;19916;-87
2021/12/05 10:58:05;;;;;;;;;;;;;;;10.86;69.44;99196.38;5021763;28;19920;-91
2021/12/05 11:00:30;;;;;;;;;;;;;;;10.99;68.81;99190.81;5019370;28;19913;-86
2021/12/05 11:03:16;;;;;;;;;;;;;;;11.09;68.39;99187.00;5026558;28;19913;-85
2021/12/05 11:05:42;;;;;;;;;;;;;;;10.99;68.90;99188.16;5026862;28;19917;-87
2021/12/05 11:08:27;;;;;;;;;;;;;;;11.21;68.10;99178.78;5013077;28;19932;-86
2021/12/05 11:11:04;;;;;;;;;;;;;;;11.12;67.77;99181.66;5010277;28;19917;-85
2021/12/05 11:13:29;;;;;;;;;;;;;;;11.26;67.79;99176.91;5016757;28;19916;-83
2021/12/05 11:15:55;;;;;;;;;;;;;;;11.00;68.44;99182.84;5030322;28;19921;-82
2021/12/05 11:18:38;;;;;;;;;;;;;;;11.22;67.65;99174.38;5030231;28;19936;-84
2021/12/05 11:21:24;;;;;;;;;;;;;;;11.42;67.14;99165.94;5030176;28;19913;-84
2021/12/05 11:24:08;;;;;;;;;;;;;;;11.38;66.10;99161.63;5028945;28;19920;-84
2021/12/05 11:26:34;;;;;;;;;;;;;;;11.26;67.02;99170.72;5029787;28;20386;-87
2021/12/05 11:28:59;;;;;;;;;;;;;;;11.43;66.73;99163.25;5028468;28;20366;-85
2021/12/05 11:31:26;;;;;;;;;;;;;;;11.71;66.78;99153.69;5030425;28;19917;-84
2021/12/05 11:33:54;;;;;;;;;;;;;;;11.76;65.65;99152.66;5029403;28;19928;-85
2021/12/05 11:36:24;;;;;;;;;;;;;;;11.33;66.47;99156.47;5025665;28;19917;-86
2021/12/05 11:38:50;;;;;;;;;;;;;;;10.95;68.12;99162.75;5026470;28;19933;-83
2021/12/05 11:41:20;;;;;;;;;;;;;;;11.22;67.00;99164.69;5029397;28;19917;-86
2021/12/05 11:43:45;;;;;;;;;;;;;;;11.50;66.43;99163.94;5025091;28;19917;-84
2021/12/05 11:46:13;;;;;;;;;;;;;;;11.67;65.65;99158.19;5029453;28;19929;-86
2021/12/05 11:48:42;;;;;;;;;;;;;;;11.53;65.93;99155.06;5029275;28;19959;-85
2021/12/05 11:51:27;;;;;;;;;;;;;;;11.65;65.88;99152.97;5029264;28;20330;-85
2021/12/05 11:54:08;;;;;;;;;;;;;;;11.59;66.73;99145.19;5029033;28;20011;-86
2021/12/05 11:56:43;;;;;;;;;;;;;;;11.45;66.15;99144.72;5029121;28;19919;-85
2021/12/05 11:59:20;;;;;;;;;;;;;;;11.47;66.79;99137.63;5029644;28;19917;-85
2021/12/05 12:01:59;;;;;;;;;;;;;;;11.73;65.93;99136.88;5028985;28;19971;-85
2021/12/05 12:04:26;;;;;;;;;;;;;;;11.95;65.59;99131.88;5026501;28;19916;-84
2021/12/05 12:07:08;;;;;;;;;;;;;;;11.70;65.39;99131.69;5028034;28;19920;-86
2021/12/05 12:09:34;;;;;;;;;;;;;;;11.34;66.34;99145.00;5029429;28;20276;-90
2021/12/05 12:11:59;;;;;;;;;;;;;;;11.07;67.97;99136.03;5029541;28;19980;-87
2021/12/05 12:14:25;;;;;;;;;;;;;;;11.55;66.50;99134.75;5029582;28;19920;-88
2021/12/05 12:16:51;;;;;;;;;;;;;;;11.61;65.89;99139.88;5029175;28;20307;-87
2021/12/05 12:19:21;;;;;;;;;;;;;;;11.70;65.40;99122.91;5029519;28;19917;-88
2021/12/05 12:21:48;;;;;;;;;;;;;;;11.70;65.64;99122.91;5029183;28;19913;-86
2021/12/05 12:24:15;;;;;;;;;;;;;;;11.81;65.26;99116.38;5029228;28;19917;-87
2021/12/05 12:26:41;;;;;;;;;;;;;;;11.35;66.67;99122.09;5028996;28;19924;-86
2021/12/05 12:29:09;;;;;;;;;;;;;;;11.43;66.54;99114.81;5028943;28;19913;-87
2021/12/05 12:31:36;;;;;;;;;;;;;;;11.50;66.99;99110.25;5029277;28;19920;-89
2021/12/05 12:34:05;;;;;;;;;;;;;;;11.00;67.55;99121.25;5029018;28;19913;-86
2021/12/05 12:36:34;;;;;;;;;;;;;;;10.95;67.77;99117.88;5022334;28;20006;-89
2021/12/05 12:39:04;;;;;;;;;;;;;;;10.81;68.51;99126.16;5011654;28;20544;-89
2021/12/05 12:41:30;;;;;;;;;;;;;;;11.21;67.52;99125.13;5007776;28;19952;-87
2021/12/05 12:43:56;;;;;;;;;;;;;;;11.44;66.66;99117.44;5008277;28;20443;-87
2021/12/05 12:46:34;;;;;;;;;;;;;;;11.55;65.97;99114.47;5008782;28;19917;-85
2021/12/05 12:49:05;;;;;;;;;;;;;;;11.39;66.61;99107.91;5028679;28;19928;-87
2021/12/05 12:51:33;;;;;;;;;;;;;;;11.27;66.98;99115.25;5026614;28;19921;-86
2021/12/05 12:54:02;;;;;;;;;;;;;;;11.47;65.80;99116.47;5027767;28;19921;-84
2021/12/05 12:56:28;;;;;;;;;;;;;;;11.39;66.57;99121.13;5027595;28;19925;-87
2021/12/05 12:59:00;;;;;;;;;;;;;;;11.65;64.92;99120.41;5027702;28;20442;-87
2021/12/05 13:12:50;;;;;;;;;;;;;;;11.74;63.48;99113.97;5028348;28;21155;-86
2021/12/05 13:15:19;;;;;;;;;;;;;;;11.67;64.29;99120.34;5026294;28;20363;-86
2021/12/05 13:17:48;;;;;;;;;;;;;;;11.67;65.53;99117.72;5028255;28;19983;-86
2021/12/05 13:20:15;;;;;;;;;;;;;;;11.76;64.86;99106.88;5028487;28;20438;-86
2021/12/05 13:22:59;;;;;;;;;;;;;;;11.74;63.67;99122.78;5027865;28;19983;-85
2021/12/05 13:25:25;;;;;;;;;;;;;;;11.50;64.63;99113.75;5027040;28;19921;-87
2021/12/05 13:27:50;;;;;;;;;;;;;;;11.51;65.08;99122.53;5027495;28;20310;-86
2021/12/05 13:30:32;;;;;;;;;;;;;;;11.55;65.53;99108.34;5027110;28;19924;-86
2021/12/05 13:33:16;;;;;;;;;;;;;;;11.96;64.16;99108.97;5013971;28;19932;-87
2021/12/05 13:35:43;;;;;;;;;;;;;;;11.89;63.97;99112.66;5027270;28;19962;-87
2021/12/05 13:38:28;;;;;;;;;;;;;;;12.06;61.91;99107.75;5020526;28;20311;-85
2021/12/05 13:40:56;;;;;;;;;;;;;;;11.70;63.41;99102.63;5013817;28;19921;-84
2021/12/05 13:43:28;;;;;;;;;;;;;;;11.51;64.69;99104.94;5050291;28;19990;-85
2021/12/05 13:45:57;;;;;;;;;;;;;;;11.51;65.01;99102.28;5024043;28;20705;-86
2021/12/05 13:48:25;;;;;;;;;;;;;;;11.49;65.32;99111.16;5007575;28;19917;-86
2021/12/05 13:50:57;;;;;;;;;;;;;;;11.65;64.72;99115.13;5018017;28;19917;-87
2021/12/05 13:53:27;;;;;;;;;;;;;;;11.15;66.04;99127.91;5028153;28;19913;-86
2021/12/05 13:55:59;;;;;;;;;;;;;;;11.09;66.84;99118.38;5027249;28;20318;-87
2021/12/05 13:58:44;;;;;;;;;;;;;;;11.22;66.12;99122.44;5026899;28;19913;-87
2021/12/05 14:01:29;;;;;;;;;;;;;;;11.21;66.43;99117.19;5026808;28;20449;-88
2021/12/05 14:03:57;;;;;;;;;;;;;;;11.45;65.05;99111.25;5026742;28;20065;-87
2021/12/05 14:06:33;;;;;;;;;;;;;;;11.26;65.04;99118.81;5026766;28;19928;-86
2021/12/05 14:09:19;;;;;;;;;;;;;;;11.39;65.49;99121.13;5021810;28;19925;-87
2021/12/05 14:11:50;;;;;;;;;;;;;;;11.00;66.00;99115.97;5006808;28;19914;-87
2021/12/05 14:14:16;;;;;;;;;;;;;;;10.96;67.24;99120.47;5014649;28;19928;-88
2021/12/05 14:16:43;;;;;;;;;;;;;;;11.17;66.87;99119.06;5026678;28;19943;-88
2021/12/05 14:19:11;;;;;;;;;;;;;;;11.27;65.84;99117.03;5025676;28;20303;-89
2021/12/05 14:21:41;;;;;;;;;;;;;;;11.13;66.76;99116.53;5030313;28;19921;-88
2021/12/05 14:24:06;;;;;;;;;;;;;;;11.23;66.38;99116.25;5018413;28;19924;-88
2021/12/05 14:26:36;;;;;;;;;;;;;;;11.14;66.47;99119.16;5006852;28;19914;-87
2021/12/05 14:29:06;;;;;;;;;;;;;;;10.93;67.39;99120.56;5026862;28;20754;-87
2021/12/05 14:31:33;;;;;;;;;;;;;;;10.91;68.05;99114.47;5027258;28;19913;-86
2021/12/05 14:33:59;;;;;;;;;;;;;;;10.87;67.65;99126.00;5026745;28;19924;-86
2021/12/05 14:36:35;;;;;;;;;;;;;;;10.99;67.43;99122.19;5027082;28;20380;-86
2021/12/05 14:39:08;;;;;;;;;;;;;;;10.86;68.08;99129.53;5027077;28;19924;-86
2021/12/05 14:41:33;;;;;;;;;;;;;;;10.77;68.19;99130.66;5026483;28;19917;-87
2021/12/05 14:43:58;;;;;;;;;;;;;;;10.78;68.08;99132.34;5026705;28;19923;-87
2021/12/05 14:46:24;;;;;;;;;;;;;;;10.51;69.26;99118.94;5027108;28;19917;-87
2021/12/05 14:49:02;;;;;;;;;;;;;;;10.51;69.53;99128.63;5026356;28;20417;-87
2021/12/05 14:51:31;;;;;;;;;;;;;;;10.63;69.66;99119.53;5027183;28;19939;-87
2021/12/05 14:53:56;;;;;;;;;;;;;;;10.72;69.39;99124.59;5027397;28;20522;-86
2021/12/05 14:56:29;;;;;;;;;;;;;;;10.56;69.34;99130.25;5021145;28;19996;-88
2021/12/05 14:59:08;;;;;;;;;;;;;;;10.55;69.34;99125.88;5025871;28;19976;-86
2021/12/05 15:01:34;;;;;;;;;;;;;;;10.67;68.93;99131.75;5023859;28;19925;-88
2021/12/05 15:04:01;;;;;;;;;;;;;;;10.45;69.65;99128.78;5025790;28;20314;-87
2021/12/05 15:06:37;;;;;;;;;;;;;;;10.54;69.66;99136.47;5026581;28;20413;-86
2021/12/05 15:09:07;;;;;;;;;;;;;;;10.58;69.68;99132.84;5025709;28;20005;-87
2021/12/05 15:11:33;;;;;;;;;;;;;;;10.65;69.74;99133.56;5024936;28;19917;-87
2021/12/05 15:14:06;;;;;;;;;;;;;;;10.46;70.16;99136.66;5024796;28;20287;-86
2021/12/05 15:16:32;;;;;;;;;;;;;;;10.42;70.42;99145.53;5025924;28;19925;-88
2021/12/05 15:18:57;;;;;;;;;;;;;;;10.48;70.10;99142.75;5024934;28;19983;-88
2021/12/05 15:21:23;;;;;;;;;;;;;;;10.46;70.04;99151.63;5020884;28;19921;-89
2021/12/05 15:23:48;;;;;;;;;;;;;;;10.50;70.20;99143.59;5026277;28;19913;-88
2021/12/05 15:26:14;;;;;;;;;;;;;;;10.53;70.08;99143.53;5026553;28;19971;-87
2021/12/05 15:28:40;;;;;;;;;;;;;;;10.61;70.00;99145.09;5026574;28;19917;-86
2021/12/05 15:31:06;;;;;;;;;;;;;;;10.61;69.75;99151.22;5026910;28;19924;-86
2021/12/05 15:33:33;;;;;;;;;;;;;;;10.68;69.85;99159.88;5026717;28;19913;-85
2021/12/05 15:35:59;;;;;;;;;;;;;;;10.59;70.54;99158.31;5026325;28;20007;-86
2021/12/05 15:38:27;;;;;;;;;;;;;;;10.53;70.56;99156.72;5026542;28;19917;-85
2021/12/05 15:40:58;;;;;;;;;;;;;;;10.28;72.24;99156.34;5025990;28;19952;-86
2021/12/05 15:43:25;;;;;;;;;;;;;;;10.37;72.28;99157.97;5026405;28;20560;-89
2021/12/05 15:45:52;;;;;;;;;;;;;;;10.29;72.94;99152.84;5026662;28;20382;-88
2021/12/05 15:48:46;;;;;;;;;;;;;;;10.12;73.69;99147.06;5026915;28;19979;-88
2021/12/05 15:51:12;;;;;;;;;;;;;;;9.78;75.50;99143.38;5024670;28;19932;-88
2021/12/05 15:53:39;;;;;;;;;;;;;;;9.77;75.93;99146.03;5024707;28;20341;-84
2021/12/05 15:56:05;;;;;;;;;;;;;;;9.85;75.78;99152.00;5030286;28;19913;-83
2021/12/05 15:58:32;;;;;;;;;;;;;;;9.70;76.63;99150.56;5029269;28;19924;-84
2021/12/05 16:01:05;;;;;;;;;;;;;;;9.81;76.48;99153.84;5029482;28;19928;-85
2021/12/05 16:03:39;;;;;;;;;;;;;;;9.90;76.31;99163.34;5029393;28;20602;-83
2021/12/05 16:06:05;;;;;;;;;;;;;;;10.12;75.00;99154.97;5028673;28;19916;-85
2021/12/05 16:08:31;;;;;;;;;;;;;;;10.03;75.33;99159.53;5030101;28;19923;-84
2021/12/05 16:11:00;;;;;;;;;;;;;;;9.71;76.48;99154.91;5029851;28;19924;-82
2021/12/05 16:13:31;;;;;;;;;;;;;;;9.68;77.00;99165.53;5028998;28;19913;-82
2021/12/05 16:16:06;;;;;;;;;;;;;;;9.86;76.80;99173.06;5029999;28;20014;-82
2021/12/05 16:18:35;;;;;;;;;;;;;;;9.92;76.73;99176.47;5029030;28;19924;-82
2021/12/05 16:21:06;;;;;;;;;;;;;;;9.97;76.45;99171.97;5029731;28;19917;-81
2021/12/05 16:23:37;;;;;;;;;;;;;;;9.77;76.84;99162.69;5029777;28;19916;-82
2021/12/05 16:26:06;;;;;;;;;;;;;;;9.81;76.99;99168.78;5029190;28;19933;-86
2021/12/05 16:28:39;;;;;;;;;;;;;;;9.82;76.76;99175.78;5029221;28;19917;-83
2021/12/05 16:31:06;;;;;;;;;;;;;;;9.53;77.83;99169.34;5029353;28;19999;-82
2021/12/05 16:33:34;;;;;;;;;;;;;;;9.45;78.62;99165.97;5029671;28;19916;-82
2021/12/05 16:36:00;;;;;;;;;;;;;;;9.42;79.23;99171.28;5029153;28;19913;-82
2021/12/05 16:38:36;;;;;;;;;;;;;;;9.50;79.02;99177.28;5029223;28;20492;-81
2021/12/05 16:41:01;;;;;;;;;;;;;;;9.65;78.29;99181.38;5027607;28;20280;-82
2021/12/05 16:43:27;;;;;;;;;;;;;;;9.70;78.21;99173.38;5028456;28;19927;-81
2021/12/05 16:46:12;;;;;;;;;;;;;;;9.54;78.11;99176.31;5028994;28;20406;-82
2021/12/05 16:48:39;;;;;;;;;;;;;;;9.44;78.48;99182.69;5028502;28;19921;-81
2021/12/05 16:51:11;;;;;;;;;;;;;;;9.50;78.58;99186.06;5028800;28;20346;-82
2021/12/05 16:53:43;;;;;;;;;;;;;;;9.45;77.93;99174.75;5027908;28;19960;-82
2021/12/05 16:56:11;;;;;;;;;;;;;;;9.50;77.89;99167.63;5028067;28;19921;-82
2021/12/05 16:58:38;;;;;;;;;;;;;;;9.41;78.54;99170.44;5027859;28;20421;-83
2021/12/05 17:01:04;;;;;;;;;;;;;;;9.53;77.69;99171.97;5026540;28;20004;-85
2021/12/05 17:03:29;;;;;;;;;;;;;;;9.53;78.16;99168.44;5028924;28;20008;-83
2021/12/05 17:05:59;;;;;;;;;;;;;;;9.55;77.88;99161.41;5026326;28;19921;-82
2021/12/05 17:08:25;;;;;;;;;;;;;;;9.62;77.59;99160.38;5028528;28;19923;-82
2021/12/05 17:10:51;;;;;;;;;;;;;;;9.66;77.25;99167.31;5027284;28;19990;-82
2021/12/05 17:13:31;;;;;;;;;;;;;;;9.62;76.96;99166.53;5028291;28;20450;-82
2021/12/05 17:16:00;;;;;;;;;;;;;;;9.78;76.51;99156.53;5028337;28;19939;-81
2021/12/05 17:18:31;;;;;;;;;;;;;;;9.79;76.45;99160.03;5028155;28;19919;-85
2021/12/05 17:20:59;;;;;;;;;;;;;;;9.47;77.76;99148.41;5027383;28;19920;-83
2021/12/05 17:23:27;;;;;;;;;;;;;;;9.45;77.58;99156.31;5028196;28;19913;-82
2021/12/05 17:25:55;;;;;;;;;;;;;;;9.55;77.83;99150.88;5026558;28;20276;-82
2021/12/05 17:28:29;;;;;;;;;;;;;;;9.57;77.54;99146.44;5027821;28;20302;-87
2021/12/05 17:30:56;;;;;;;;;;;;;;;9.50;77.50;99140.44;5027726;28;20448;-83
2021/12/05 17:33:29;;;;;;;;;;;;;;;9.51;77.94;99152.69;5027925;28;19924;-83
2021/12/05 17:35:55;;;;;;;;;;;;;;;9.42;78.40;99147.59;5027892;28;19916;-83
2021/12/05 17:38:31;;;;;;;;;;;;;;;9.65;76.96;99148.03;5026916;28;19916;-83
2021/12/05 17:40:57;;;;;;;;;;;;;;;9.72;76.82;99155.81;5027563;28;20391;-83
2021/12/05 17:43:22;;;;;;;;;;;;;;;9.77;76.63;99167.97;5026603;28;19920;-84
2021/12/05 17:45:48;;;;;;;;;;;;;;;9.94;75.94;99167.63;5027418;28;19916;-83
2021/12/05 17:48:13;;;;;;;;;;;;;;;9.98;76.03;99171.09;5027800;28;20131;-83
2021/12/05 17:50:40;;;;;;;;;;;;;;;10.24;75.63;99167.88;5014367;28;19917;-82
2021/12/05 17:53:06;;;;;;;;;;;;;;;10.39;74.97;99175.50;5006539;28;20281;-82
2021/12/05 17:55:38;;;;;;;;;;;;;;;10.36;74.28;99170.28;5006121;28;19940;-80
2021/12/05 17:58:19;;;;;;;;;;;;;;;10.31;74.16;99171.25;5011897;28;19921;-84
2021/12/05 18:00:57;;;;;;;;;;;;;;;10.35;73.83;99178.22;5027431;28;19924;-83
2021/12/05 18:03:23;;;;;;;;;;;;;;;10.41;73.42;99185.13;5026544;28;19917;-82
2021/12/05 18:05:49;;;;;;;;;;;;;;;10.33;73.59;99175.63;5018334;28;19928;-84
2021/12/05 18:08:18;;;;;;;;;;;;;;;10.19;73.83;99165.34;5015826;28;19964;-83
2021/12/05 18:10:54;;;;;;;;;;;;;;;10.15;74.21;99158.41;5026933;28;19917;-83
2021/12/05 18:13:23;;;;;;;;;;;;;;;10.16;74.25;99157.50;5022814;28;19917;-83
2021/12/05 18:15:56;;;;;;;;;;;;;;;10.14;73.75;99166.34;5026460;28;19928;-84
2021/12/05 18:18:23;;;;;;;;;;;;;;;10.11;73.76;99172.53;5026941;28;20379;-82
2021/12/05 18:20:48;;;;;;;;;;;;;;;10.18;74.17;99192.59;5027051;28;19920;-84
2021/12/05 18:23:14;;;;;;;;;;;;;;;10.07;73.97;99191.97;5026152;28;19946;-83
2021/12/05 18:25:41;;;;;;;;;;;;;;;10.21;73.70;99187.25;5026873;28;20374;-84
2021/12/05 18:28:06;;;;;;;;;;;;;;;10.29;73.86;99191.50;5027012;28;19920;-83
2021/12/05 18:30:32;;;;;;;;;;;;;;;10.12;73.96;99187.47;5027053;28;20384;-82